sensor_id;sensor_type;location;lat;lon;timestamp;temperature;humidity
78522;SHT31;67819;51.972;5.678;2023-02-15T00:00:34;5.6;72.2
78522;SHT31;67819;51.972;5.678;2023-02-15T00:03:04;5.6;71.9
78522;SHT31;67819;51.972;5.678;2023-02-15T00:05:35;5.6;73.2
78522;SHT31;67819;51.972;5.678;2023-02-15T00:08:05;5.6;73.1
78522;SHT31;67819;51.972;5.678;2023-02-15T00:10:35;5.6;72.5
78522;SHT31;67819;51.972;5.678;2023-02-15T00:13:06;5.5;72.6
78522;SHT31;67819;51.972;5.678;2023-02-15T00:15:36;5.5;72.1
78522;SHT31;67819;51.972;5.678;2023-02-15T00:18:06;5.5;72.0
78522;SHT31;67819;51.972;5.678;2023-02-15T00:20:35;5.5;72.0
78522;SHT31;67819;51.972;5.678;2023-02-15T00:23:07;5.5;72.4
78522;SHT31;67819;51.972;5.678;2023-02-15T00:25:36;5.5;73.4
78522;SHT31;67819;51.972;5.678;2023-02-15T00:28:06;5.5;73.2
78522;SHT31;67819;51.972;5.678;2023-02-15T00:30:36;5.5;73.5
78522;SHT31;67819;51.972;5.678;2023-02-15T00:33:07;5.4;74.9
78522;SHT31;67819;51.972;5.678;2023-02-15T00:35:37;5.4;73.8
78522;SHT31;67819;51.972;5.678;2023-02-15T00:38:07;5.4;73.6
78522;SHT31;67819;51.972;5.678;2023-02-15T00:40:36;5.4;72.4
78522;SHT31;67819;51.972;5.678;2023-02-15T00:43:06;5.4;71.9
78522;SHT31;67819;51.972;5.678;2023-02-15T00:45:36;5.4;72.7
78522;SHT31;67819;51.972;5.678;2023-02-15T00:48:06;5.3;71.8
78522;SHT31;67819;51.972;5.678;2023-02-15T00:50:36;5.3;71.4
78522;SHT31;67819;51.972;5.678;2023-02-15T00:53:07;5.2;72.8
78522;SHT31;67819;51.972;5.678;2023-02-15T00:55:36;5.2;73.6
78522;SHT31;67819;51.972;5.678;2023-02-15T00:58:07;5.1;74.2
78522;SHT31;67819;51.972;5.678;2023-02-15T01:00:38;5.1;74.3
78522;SHT31;67819;51.972;5.678;2023-02-15T01:03:09;5.1;74.5
78522;SHT31;67819;51.972;5.678;2023-02-15T01:05:39;5.1;75.0
78522;SHT31;67819;51.972;5.678;2023-02-15T01:08:10;5.1;75.2
78522;SHT31;67819;51.972;5.678;2023-02-15T01:10:39;5.1;75.4
78522;SHT31;67819;51.972;5.678;2023-02-15T01:13:11;5.1;74.2
78522;SHT31;67819;51.972;5.678;2023-02-15T01:15:41;5.1;73.2
78522;SHT31;67819;51.972;5.678;2023-02-15T01:18:11;5.1;73.0
78522;SHT31;67819;51.972;5.678;2023-02-15T01:20:42;5.1;74.2
78522;SHT31;67819;51.972;5.678;2023-02-15T01:23:11;5.1;74.4
78522;SHT31;67819;51.972;5.678;2023-02-15T01:25:41;5.1;74.8
78522;SHT31;67819;51.972;5.678;2023-02-15T01:28:12;5.1;74.9
78522;SHT31;67819;51.972;5.678;2023-02-15T01:30:42;5.0;75.4
78522;SHT31;67819;51.972;5.678;2023-02-15T01:33:11;5.0;75.8
78522;SHT31;67819;51.972;5.678;2023-02-15T01:35:46;5.0;75.8
78522;SHT31;67819;51.972;5.678;2023-02-15T01:38:15;5.1;74.6
78522;SHT31;67819;51.972;5.678;2023-02-15T01:40:45;5.1;73.7
78522;SHT31;67819;51.972;5.678;2023-02-15T01:43:16;5.1;73.8
78522;SHT31;67819;51.972;5.678;2023-02-15T01:45:49;5.1;75.7
78522;SHT31;67819;51.972;5.678;2023-02-15T01:48:23;5.1;76.0
78522;SHT31;67819;51.972;5.678;2023-02-15T01:50:58;5.1;76.8
78522;SHT31;67819;51.972;5.678;2023-02-15T01:53:33;5.2;76.8
78522;SHT31;67819;51.972;5.678;2023-02-15T01:56:07;5.2;75.9
78522;SHT31;67819;51.972;5.678;2023-02-15T01:58:40;5.2;74.8
78522;SHT31;67819;51.972;5.678;2023-02-15T02:01:10;5.2;74.8
78522;SHT31;67819;51.972;5.678;2023-02-15T02:03:49;5.2;74.5
78522;SHT31;67819;51.972;5.678;2023-02-15T02:06:26;5.3;74.7
78522;SHT31;67819;51.972;5.678;2023-02-15T02:08:56;5.3;74.8
78522;SHT31;67819;51.972;5.678;2023-02-15T02:11:26;5.3;74.9
78522;SHT31;67819;51.972;5.678;2023-02-15T02:13:56;5.3;74.8
78522;SHT31;67819;51.972;5.678;2023-02-15T02:16:31;5.3;73.8
78522;SHT31;67819;51.972;5.678;2023-02-15T02:19:46;5.3;72.5
78522;SHT31;67819;51.972;5.678;2023-02-15T02:27:25;5.3;72.5
78522;SHT31;67819;51.972;5.678;2023-02-15T02:33:30;5.2;72.6
78522;SHT31;67819;51.972;5.678;2023-02-15T02:36:09;5.2;73.1
78522;SHT31;67819;51.972;5.678;2023-02-15T02:39:01;5.2;73.2
78522;SHT31;67819;51.972;5.678;2023-02-15T02:41:42;5.2;72.7
78522;SHT31;67819;51.972;5.678;2023-02-15T02:44:18;5.1;72.0
78522;SHT31;67819;51.972;5.678;2023-02-15T02:46:56;5.1;71.8
78522;SHT31;67819;51.972;5.678;2023-02-15T02:49:34;5.0;72.3
78522;SHT31;67819;51.972;5.678;2023-02-15T02:52:06;5.0;72.1
78522;SHT31;67819;51.972;5.678;2023-02-15T02:54:36;4.9;73.0
78522;SHT31;67819;51.972;5.678;2023-02-15T02:57:07;4.9;73.5
78522;SHT31;67819;51.972;5.678;2023-02-15T02:59:43;4.9;73.1
78522;SHT31;67819;51.972;5.678;2023-02-15T03:02:18;4.9;72.4
78522;SHT31;67819;51.972;5.678;2023-02-15T03:04:56;4.8;71.1
78522;SHT31;67819;51.972;5.678;2023-02-15T03:07:34;4.8;71.1
78522;SHT31;67819;51.972;5.678;2023-02-15T03:10:08;4.8;71.4
78522;SHT31;67819;51.972;5.678;2023-02-15T03:12:40;4.7;71.9
78522;SHT31;67819;51.972;5.678;2023-02-15T03:15:15;4.7;72.1
78522;SHT31;67819;51.972;5.678;2023-02-15T03:17:49;4.6;73.3
78522;SHT31;67819;51.972;5.678;2023-02-15T03:20:24;4.6;74.0
78522;SHT31;67819;51.972;5.678;2023-02-15T03:22:59;4.5;73.5
78522;SHT31;67819;51.972;5.678;2023-02-15T03:25:34;4.5;73.2
78522;SHT31;67819;51.972;5.678;2023-02-15T03:28:08;4.5;73.4
78522;SHT31;67819;51.972;5.678;2023-02-15T03:30:43;4.4;72.2
78522;SHT31;67819;51.972;5.678;2023-02-15T03:33:15;4.4;73.1
78522;SHT31;67819;51.972;5.678;2023-02-15T03:35:54;4.3;73.2
78522;SHT31;67819;51.972;5.678;2023-02-15T03:38:34;4.3;73.4
78522;SHT31;67819;51.972;5.678;2023-02-15T03:41:07;4.3;73.3
78522;SHT31;67819;51.972;5.678;2023-02-15T03:43:46;4.3;73.1
78522;SHT31;67819;51.972;5.678;2023-02-15T03:46:25;4.3;72.9
78522;SHT31;67819;51.972;5.678;2023-02-15T03:49:01;4.3;74.5
78522;SHT31;67819;51.972;5.678;2023-02-15T03:51:36;4.3;75.0
78522;SHT31;67819;51.972;5.678;2023-02-15T03:54:09;4.3;75.2
78522;SHT31;67819;51.972;5.678;2023-02-15T03:56:41;4.3;76.1
78522;SHT31;67819;51.972;5.678;2023-02-15T03:59:16;4.3;76.2
78522;SHT31;67819;51.972;5.678;2023-02-15T04:02:12;4.4;76.2
78522;SHT31;67819;51.972;5.678;2023-02-15T04:04:47;4.4;76.3
78522;SHT31;67819;51.972;5.678;2023-02-15T04:07:17;4.4;76.3
78522;SHT31;67819;51.972;5.678;2023-02-15T04:09:46;4.4;76.2
78522;SHT31;67819;51.972;5.678;2023-02-15T04:12:32;4.4;76.0
78522;SHT31;67819;51.972;5.678;2023-02-15T04:15:02;4.5;75.9
78522;SHT31;67819;51.972;5.678;2023-02-15T04:17:48;4.5;76.4
78522;SHT31;67819;51.972;5.678;2023-02-15T04:20:18;4.5;76.3
78522;SHT31;67819;51.972;5.678;2023-02-15T04:23:07;4.5;76.3
78522;SHT31;67819;51.972;5.678;2023-02-15T04:25:53;4.5;76.4
78522;SHT31;67819;51.972;5.678;2023-02-15T04:28:23;4.6;76.7
78522;SHT31;67819;51.972;5.678;2023-02-15T04:30:52;4.6;77.1
78522;SHT31;67819;51.972;5.678;2023-02-15T04:33:22;4.6;76.4
78522;SHT31;67819;51.972;5.678;2023-02-15T04:35:51;4.6;76.4
78522;SHT31;67819;51.972;5.678;2023-02-15T04:38:21;4.7;75.9
78522;SHT31;67819;51.972;5.678;2023-02-15T04:40:52;4.7;76.4
78522;SHT31;67819;51.972;5.678;2023-02-15T04:43:22;4.7;75.9
78522;SHT31;67819;51.972;5.678;2023-02-15T04:45:51;4.7;76.2
78522;SHT31;67819;51.972;5.678;2023-02-15T04:48:21;4.8;76.1
78522;SHT31;67819;51.972;5.678;2023-02-15T04:50:51;4.8;75.9
78522;SHT31;67819;51.972;5.678;2023-02-15T04:53:20;4.8;75.4
78522;SHT31;67819;51.972;5.678;2023-02-15T04:55:52;4.8;75.4
78522;SHT31;67819;51.972;5.678;2023-02-15T04:58:22;4.9;75.4
78522;SHT31;67819;51.972;5.678;2023-02-15T05:00:54;4.9;75.4
78522;SHT31;67819;51.972;5.678;2023-02-15T05:03:24;4.9;75.2
78522;SHT31;67819;51.972;5.678;2023-02-15T05:05:54;4.9;75.1
78522;SHT31;67819;51.972;5.678;2023-02-15T05:08:24;4.9;74.8
78522;SHT31;67819;51.972;5.678;2023-02-15T05:10:54;4.9;74.8
78522;SHT31;67819;51.972;5.678;2023-02-15T05:13:24;4.9;74.8
78522;SHT31;67819;51.972;5.678;2023-02-15T05:15:54;4.9;74.4
78522;SHT31;67819;51.972;5.678;2023-02-15T05:18:23;4.9;74.4
78522;SHT31;67819;51.972;5.678;2023-02-15T05:20:53;4.9;74.1
78522;SHT31;67819;51.972;5.678;2023-02-15T05:23:23;4.9;74.3
78522;SHT31;67819;51.972;5.678;2023-02-15T05:25:53;4.9;73.9
78522;SHT31;67819;51.972;5.678;2023-02-15T05:28:39;4.9;73.9
78522;SHT31;67819;51.972;5.678;2023-02-15T05:31:11;4.9;73.9
78522;SHT31;67819;51.972;5.678;2023-02-15T05:33:42;4.9;74.2
78522;SHT31;67819;51.972;5.678;2023-02-15T05:36:12;4.8;74.1
78522;SHT31;67819;51.972;5.678;2023-02-15T05:38:42;4.8;74.4
78522;SHT31;67819;51.972;5.678;2023-02-15T05:41:12;4.8;74.2
78522;SHT31;67819;51.972;5.678;2023-02-15T05:43:42;4.8;74.2
78522;SHT31;67819;51.972;5.678;2023-02-15T05:46:12;4.8;74.1
78522;SHT31;67819;51.972;5.678;2023-02-15T05:48:42;4.8;74.2
78522;SHT31;67819;51.972;5.678;2023-02-15T05:51:15;4.8;74.1
78522;SHT31;67819;51.972;5.678;2023-02-15T05:53:45;4.8;74.2
78522;SHT31;67819;51.972;5.678;2023-02-15T05:56:15;4.7;73.9
78522;SHT31;67819;51.972;5.678;2023-02-15T05:58:46;4.7;73.7
78522;SHT31;67819;51.972;5.678;2023-02-15T06:01:18;4.7;73.4
78522;SHT31;67819;51.972;5.678;2023-02-15T06:03:50;4.7;73.6
78522;SHT31;67819;51.972;5.678;2023-02-15T06:06:20;4.7;73.3
78522;SHT31;67819;51.972;5.678;2023-02-15T06:08:50;4.7;73.2
78522;SHT31;67819;51.972;5.678;2023-02-15T06:11:19;4.7;73.2
78522;SHT31;67819;51.972;5.678;2023-02-15T06:13:49;4.7;73.1
78522;SHT31;67819;51.972;5.678;2023-02-15T06:16:18;4.7;72.9
78522;SHT31;67819;51.972;5.678;2023-02-15T06:18:50;4.7;72.8
78522;SHT31;67819;51.972;5.678;2023-02-15T06:21:20;4.7;72.8
78522;SHT31;67819;51.972;5.678;2023-02-15T06:23:49;4.7;72.8
78522;SHT31;67819;51.972;5.678;2023-02-15T06:26:19;4.7;73.1
78522;SHT31;67819;51.972;5.678;2023-02-15T06:28:49;4.6;73.2
78522;SHT31;67819;51.972;5.678;2023-02-15T06:31:18;4.6;73.1
78522;SHT31;67819;51.972;5.678;2023-02-15T06:33:48;4.6;73.0
78522;SHT31;67819;51.972;5.678;2023-02-15T06:36:18;4.6;73.0
78522;SHT31;67819;51.972;5.678;2023-02-15T06:38:49;4.6;73.2
78522;SHT31;67819;51.972;5.678;2023-02-15T06:41:19;4.6;73.1
78522;SHT31;67819;51.972;5.678;2023-02-15T06:43:49;4.6;73.2
78522;SHT31;67819;51.972;5.678;2023-02-15T06:46:22;4.6;73.1
78522;SHT31;67819;51.972;5.678;2023-02-15T06:48:54;4.6;73.1
78522;SHT31;67819;51.972;5.678;2023-02-15T06:51:24;4.5;73.2
78522;SHT31;67819;51.972;5.678;2023-02-15T06:53:56;4.5;73.0
78522;SHT31;67819;51.972;5.678;2023-02-15T06:56:25;4.5;73.0
78522;SHT31;67819;51.972;5.678;2023-02-15T06:58:55;4.5;73.0
78522;SHT31;67819;51.972;5.678;2023-02-15T07:01:25;4.5;73.1
78522;SHT31;67819;51.972;5.678;2023-02-15T07:03:54;4.5;73.1
78522;SHT31;67819;51.972;5.678;2023-02-15T07:06:24;4.5;73.1
78522;SHT31;67819;51.972;5.678;2023-02-15T07:08:56;4.5;73.2
78522;SHT31;67819;51.972;5.678;2023-02-15T07:11:26;4.4;73.2
78522;SHT31;67819;51.972;5.678;2023-02-15T07:14:12;4.4;73.3
78522;SHT31;67819;51.972;5.678;2023-02-15T07:16:42;4.4;73.2
78522;SHT31;67819;51.972;5.678;2023-02-15T07:19:11;4.4;73.2
78522;SHT31;67819;51.972;5.678;2023-02-15T07:21:43;4.5;73.1
78522;SHT31;67819;51.972;5.678;2023-02-15T07:24:13;4.5;73.0
78522;SHT31;67819;51.972;5.678;2023-02-15T07:26:43;4.5;73.0
78522;SHT31;67819;51.972;5.678;2023-02-15T07:29:13;4.5;73.2
78522;SHT31;67819;51.972;5.678;2023-02-15T07:31:43;4.5;73.3
78522;SHT31;67819;51.972;5.678;2023-02-15T07:34:13;4.5;73.0
78522;SHT31;67819;51.972;5.678;2023-02-15T07:36:43;4.5;73.0
78522;SHT31;67819;51.972;5.678;2023-02-15T07:39:13;4.5;72.9
78522;SHT31;67819;51.972;5.678;2023-02-15T07:41:43;4.5;72.8
78522;SHT31;67819;51.972;5.678;2023-02-15T07:44:14;4.5;73.0
78522;SHT31;67819;51.972;5.678;2023-02-15T07:46:44;4.5;73.0
78522;SHT31;67819;51.972;5.678;2023-02-15T07:49:13;4.6;73.0
78522;SHT31;67819;51.972;5.678;2023-02-15T07:51:44;4.6;72.9
78522;SHT31;67819;51.972;5.678;2023-02-15T07:54:13;4.6;72.7
78522;SHT31;67819;51.972;5.678;2023-02-15T07:56:43;4.6;72.6
78522;SHT31;67819;51.972;5.678;2023-02-15T07:59:13;4.6;72.5
78522;SHT31;67819;51.972;5.678;2023-02-15T08:01:44;4.7;72.6
78522;SHT31;67819;51.972;5.678;2023-02-15T08:04:14;4.7;72.5
78522;SHT31;67819;51.972;5.678;2023-02-15T08:06:45;4.7;72.3
78522;SHT31;67819;51.972;5.678;2023-02-15T08:09:15;4.7;72.1
78522;SHT31;67819;51.972;5.678;2023-02-15T08:11:46;4.8;71.8
78522;SHT31;67819;51.972;5.678;2023-02-15T08:14:17;4.8;72.1
78522;SHT31;67819;51.972;5.678;2023-02-15T08:16:51;4.8;72.0
78522;SHT31;67819;51.972;5.678;2023-02-15T08:19:24;4.9;71.8
78522;SHT31;67819;51.972;5.678;2023-02-15T08:21:56;4.9;71.5
78522;SHT31;67819;51.972;5.678;2023-02-15T08:24:28;4.9;71.5
78522;SHT31;67819;51.972;5.678;2023-02-15T08:26:59;5.0;71.5
78522;SHT31;67819;51.972;5.678;2023-02-15T08:29:31;5.0;71.2
78522;SHT31;67819;51.972;5.678;2023-02-15T08:32:03;5.1;71.0
78522;SHT31;67819;51.972;5.678;2023-02-15T08:34:36;5.1;70.9
78522;SHT31;67819;51.972;5.678;2023-02-15T08:37:08;5.1;71.0
78522;SHT31;67819;51.972;5.678;2023-02-15T08:39:37;5.2;70.8
78522;SHT31;67819;51.972;5.678;2023-02-15T08:42:07;5.2;71.1
78522;SHT31;67819;51.972;5.678;2023-02-15T08:44:37;5.3;70.7
78522;SHT31;67819;51.972;5.678;2023-02-15T08:47:06;5.3;70.5
78522;SHT31;67819;51.972;5.678;2023-02-15T08:49:36;5.4;70.5
78522;SHT31;67819;51.972;5.678;2023-02-15T08:52:06;5.4;70.7
78522;SHT31;67819;51.972;5.678;2023-02-15T08:54:36;5.5;70.5
78522;SHT31;67819;51.972;5.678;2023-02-15T08:57:05;5.5;70.4
78522;SHT31;67819;51.972;5.678;2023-02-15T08:59:37;5.6;70.5
78522;SHT31;67819;51.972;5.678;2023-02-15T09:02:10;5.6;70.5
78522;SHT31;67819;51.972;5.678;2023-02-15T09:04:39;5.6;70.5
78522;SHT31;67819;51.972;5.678;2023-02-15T09:07:09;5.7;70.8
78522;SHT31;67819;51.972;5.678;2023-02-15T09:09:39;5.7;70.7
78522;SHT31;67819;51.972;5.678;2023-02-15T09:12:08;5.7;70.2
78522;SHT31;67819;51.972;5.678;2023-02-15T09:14:38;5.8;70.4
78522;SHT31;67819;51.972;5.678;2023-02-15T09:17:10;5.8;70.5
78522;SHT31;67819;51.972;5.678;2023-02-15T09:19:42;5.8;70.5
78522;SHT31;67819;51.972;5.678;2023-02-15T09:22:11;5.9;70.8
78522;SHT31;67819;51.972;5.678;2023-02-15T09:24:41;5.9;71.0
78522;SHT31;67819;51.972;5.678;2023-02-15T09:27:11;6.0;71.0
78522;SHT31;67819;51.972;5.678;2023-02-15T09:29:41;6.0;70.9
78522;SHT31;67819;51.972;5.678;2023-02-15T09:32:15;6.1;70.7
78522;SHT31;67819;51.972;5.678;2023-02-15T09:34:45;6.2;70.6
78522;SHT31;67819;51.972;5.678;2023-02-15T09:37:14;6.2;70.3
78522;SHT31;67819;51.972;5.678;2023-02-15T09:39:44;6.3;70.2
78522;SHT31;67819;51.972;5.678;2023-02-15T09:42:42;6.3;70.2
78522;SHT31;67819;51.972;5.678;2023-02-15T09:45:26;6.4;69.7
78522;SHT31;67819;51.972;5.678;2023-02-15T09:48:42;6.5;69.7
78522;SHT31;67819;51.972;5.678;2023-02-15T09:52:14;6.6;69.2
78522;SHT31;67819;51.972;5.678;2023-02-15T09:55:04;6.7;69.3
78522;SHT31;67819;51.972;5.678;2023-02-15T09:57:46;6.8;69.7
78522;SHT31;67819;51.972;5.678;2023-02-15T10:00:29;6.9;68.5
78522;SHT31;67819;51.972;5.678;2023-02-15T10:03:19;7.0;68.0
78522;SHT31;67819;51.972;5.678;2023-02-15T10:06:10;7.1;67.1
78522;SHT31;67819;51.972;5.678;2023-02-15T10:09:02;7.1;67.2
78522;SHT31;67819;51.972;5.678;2023-02-15T10:11:46;7.2;66.8
78522;SHT31;67819;51.972;5.678;2023-02-15T10:14:56;7.3;66.5
78522;SHT31;67819;51.972;5.678;2023-02-15T10:17:41;7.4;66.1
78522;SHT31;67819;51.972;5.678;2023-02-15T10:20:25;7.5;66.1
78522;SHT31;67819;51.972;5.678;2023-02-15T10:23:11;7.6;65.5
78522;SHT31;67819;51.972;5.678;2023-02-15T10:25:47;7.7;65.5
78522;SHT31;67819;51.972;5.678;2023-02-15T10:28:23;7.8;65.7
78522;SHT31;67819;51.972;5.678;2023-02-15T10:31:04;7.9;65.3
78522;SHT31;67819;51.972;5.678;2023-02-15T10:33:40;8.0;65.2
78522;SHT31;67819;51.972;5.678;2023-02-15T10:36:27;8.1;65.2
78522;SHT31;67819;51.972;5.678;2023-02-15T10:39:04;8.2;64.6
78522;SHT31;67819;51.972;5.678;2023-02-15T10:41:45;8.2;64.3
78522;SHT31;67819;51.972;5.678;2023-02-15T10:44:32;8.3;63.7
78522;SHT31;67819;51.972;5.678;2023-02-15T10:47:35;8.4;63.7
78522;SHT31;67819;51.972;5.678;2023-02-15T10:50:26;8.4;63.7
78522;SHT31;67819;51.972;5.678;2023-02-15T10:53:13;8.5;63.2
78522;SHT31;67819;51.972;5.678;2023-02-15T10:55:51;8.6;63.5
78522;SHT31;67819;51.972;5.678;2023-02-15T10:58:33;8.6;63.8
78522;SHT31;67819;51.972;5.678;2023-02-15T11:01:15;8.7;63.4
78522;SHT31;67819;51.972;5.678;2023-02-15T11:04:14;8.8;63.4
78522;SHT31;67819;51.972;5.678;2023-02-15T11:06:52;8.9;62.4
78522;SHT31;67819;51.972;5.678;2023-02-15T11:09:29;9.0;62.3
78522;SHT31;67819;51.972;5.678;2023-02-15T11:12:04;9.1;62.2
78522;SHT31;67819;51.972;5.678;2023-02-15T11:14:43;9.2;61.7
78522;SHT31;67819;51.972;5.678;2023-02-15T11:17:19;9.3;61.9
78522;SHT31;67819;51.972;5.678;2023-02-15T11:19:58;9.4;61.2
78522;SHT31;67819;51.972;5.678;2023-02-15T11:22:33;9.5;61.3
78522;SHT31;67819;51.972;5.678;2023-02-15T11:25:17;9.6;60.7
78522;SHT31;67819;51.972;5.678;2023-02-15T11:27:48;9.7;60.6
78522;SHT31;67819;51.972;5.678;2023-02-15T11:30:24;9.7;60.6
78522;SHT31;67819;51.972;5.678;2023-02-15T11:32:57;9.8;60.5
78522;SHT31;67819;51.972;5.678;2023-02-15T11:35:32;9.9;60.5
78522;SHT31;67819;51.972;5.678;2023-02-15T11:38:14;10.0;60.1
78522;SHT31;67819;51.972;5.678;2023-02-15T11:40:47;10.1;60.0
78522;SHT31;67819;51.972;5.678;2023-02-15T11:43:23;10.2;59.6
78522;SHT31;67819;51.972;5.678;2023-02-15T11:45:54;10.2;59.7
78522;SHT31;67819;51.972;5.678;2023-02-15T11:48:24;10.3;59.0
78522;SHT31;67819;51.972;5.678;2023-02-15T11:50:54;10.4;59.9
78522;SHT31;67819;51.972;5.678;2023-02-15T11:53:32;10.4;60.0
78522;SHT31;67819;51.972;5.678;2023-02-15T11:56:03;10.5;59.1
78522;SHT31;67819;51.972;5.678;2023-02-15T11:58:41;10.6;59.4
78522;SHT31;67819;51.972;5.678;2023-02-15T12:01:16;10.7;58.8
78522;SHT31;67819;51.972;5.678;2023-02-15T12:03:52;10.8;59.0
78522;SHT31;67819;51.972;5.678;2023-02-15T12:06:26;10.9;58.6
78522;SHT31;67819;51.972;5.678;2023-02-15T12:09:02;11.0;58.2
78522;SHT31;67819;51.972;5.678;2023-02-15T12:11:35;11.1;57.9
78522;SHT31;67819;51.972;5.678;2023-02-15T12:14:08;11.1;58.1
78522;SHT31;67819;51.972;5.678;2023-02-15T12:16:44;11.2;57.4
78522;SHT31;67819;51.972;5.678;2023-02-15T12:19:29;11.3;57.5
78522;SHT31;67819;51.972;5.678;2023-02-15T12:22:03;11.3;57.7
78522;SHT31;67819;51.972;5.678;2023-02-15T12:24:37;11.4;57.6
78522;SHT31;67819;51.972;5.678;2023-02-15T12:27:16;11.5;57.4
78522;SHT31;67819;51.972;5.678;2023-02-15T12:29:51;11.6;56.8
78522;SHT31;67819;51.972;5.678;2023-02-15T12:32:25;11.6;57.0
78522;SHT31;67819;51.972;5.678;2023-02-15T12:35:07;11.7;56.9
78522;SHT31;67819;51.972;5.678;2023-02-15T12:37:38;11.8;57.0
78522;SHT31;67819;51.972;5.678;2023-02-15T12:40:22;11.9;56.8
78522;SHT31;67819;51.972;5.678;2023-02-15T12:42:53;12.0;56.3
78522;SHT31;67819;51.972;5.678;2023-02-15T12:45:27;12.1;56.1
78522;SHT31;67819;51.972;5.678;2023-02-15T12:48:14;12.2;56.1
78522;SHT31;67819;51.972;5.678;2023-02-15T12:50:47;12.3;55.2
78522;SHT31;67819;51.972;5.678;2023-02-15T12:53:19;12.3;55.2
78522;SHT31;67819;51.972;5.678;2023-02-15T12:55:53;12.4;54.6
78522;SHT31;67819;51.972;5.678;2023-02-15T12:58:25;12.5;54.5
78522;SHT31;67819;51.972;5.678;2023-02-15T13:01:15;12.5;54.1
78522;SHT31;67819;51.972;5.678;2023-02-15T13:03:58;12.6;53.3
78522;SHT31;67819;51.972;5.678;2023-02-15T13:06:32;12.6;53.7
78522;SHT31;67819;51.972;5.678;2023-02-15T13:09:15;12.7;53.2
78522;SHT31;67819;51.972;5.678;2023-02-15T13:11:46;12.7;53.2
78522;SHT31;67819;51.972;5.678;2023-02-15T13:14:20;12.8;53.2
78522;SHT31;67819;51.972;5.678;2023-02-15T13:16:53;12.8;52.9
78522;SHT31;67819;51.972;5.678;2023-02-15T13:19:33;12.8;53.1
78522;SHT31;67819;51.972;5.678;2023-02-15T13:22:08;12.8;52.8
78522;SHT31;67819;51.972;5.678;2023-02-15T13:24:46;12.9;52.7
78522;SHT31;67819;51.972;5.678;2023-02-15T13:27:19;12.9;53.0
78522;SHT31;67819;51.972;5.678;2023-02-15T13:29:54;12.9;52.6
78522;SHT31;67819;51.972;5.678;2023-02-15T13:32:30;12.9;52.4
78522;SHT31;67819;51.972;5.678;2023-02-15T13:35:04;13.0;52.8
78522;SHT31;67819;51.972;5.678;2023-02-15T13:38:00;13.0;52.7
78522;SHT31;67819;51.972;5.678;2023-02-15T13:40:37;13.1;52.7
78522;SHT31;67819;51.972;5.678;2023-02-15T13:43:20;13.2;52.6
78522;SHT31;67819;51.972;5.678;2023-02-15T13:46:06;13.3;52.1
78522;SHT31;67819;51.972;5.678;2023-02-15T13:48:50;13.4;52.0
78522;SHT31;67819;51.972;5.678;2023-02-15T13:51:30;13.5;51.8
78522;SHT31;67819;51.972;5.678;2023-02-15T13:55:06;13.6;51.2
78522;SHT31;67819;51.972;5.678;2023-02-15T13:58:00;13.7;50.8
78522;SHT31;67819;51.972;5.678;2023-02-15T14:00:38;13.7;50.7
78522;SHT31;67819;51.972;5.678;2023-02-15T14:03:42;13.8;50.7
78522;SHT31;67819;51.972;5.678;2023-02-15T14:08:08;13.8;50.4
78522;SHT31;67819;51.972;5.678;2023-02-15T14:10:47;13.9;50.1
78522;SHT31;67819;51.972;5.678;2023-02-15T14:15:00;13.9;50.3
78522;SHT31;67819;51.972;5.678;2023-02-15T14:17:44;14.0;50.5
78522;SHT31;67819;51.972;5.678;2023-02-15T14:20:23;14.0;50.4
78522;SHT31;67819;51.972;5.678;2023-02-15T14:23:03;14.0;50.3
78522;SHT31;67819;51.972;5.678;2023-02-15T14:25:43;14.0;50.3
78522;SHT31;67819;51.972;5.678;2023-02-15T14:28:21;14.0;50.2
78522;SHT31;67819;51.972;5.678;2023-02-15T14:30:56;14.1;50.0
78522;SHT31;67819;51.972;5.678;2023-02-15T14:33:32;14.1;50.3
78522;SHT31;67819;51.972;5.678;2023-02-15T14:36:06;14.2;49.2
78522;SHT31;67819;51.972;5.678;2023-02-15T14:38:54;14.2;49.4
78522;SHT31;67819;51.972;5.678;2023-02-15T14:41:31;14.3;49.3
78522;SHT31;67819;51.972;5.678;2023-02-15T14:44:15;14.3;49.2
78522;SHT31;67819;51.972;5.678;2023-02-15T14:46:52;14.4;49.0
78522;SHT31;67819;51.972;5.678;2023-02-15T14:49:26;14.4;49.6
78522;SHT31;67819;51.972;5.678;2023-02-15T14:52:02;14.4;49.3
78522;SHT31;67819;51.972;5.678;2023-02-15T14:54:55;14.4;49.2
78522;SHT31;67819;51.972;5.678;2023-02-15T14:57:39;14.4;49.0
78522;SHT31;67819;51.972;5.678;2023-02-15T15:01:05;14.4;49.2
78522;SHT31;67819;51.972;5.678;2023-02-15T15:03:36;14.4;48.7
78522;SHT31;67819;51.972;5.678;2023-02-15T15:06:25;14.4;49.0
78522;SHT31;67819;51.972;5.678;2023-02-15T15:09:01;14.3;48.6
78522;SHT31;67819;51.972;5.678;2023-02-15T15:11:44;14.3;48.8
78522;SHT31;67819;51.972;5.678;2023-02-15T15:14:40;14.2;49.2
78522;SHT31;67819;51.972;5.678;2023-02-15T15:17:51;14.1;49.5
78522;SHT31;67819;51.972;5.678;2023-02-15T15:20:39;14.1;49.8
78522;SHT31;67819;51.972;5.678;2023-02-15T15:23:45;14.0;49.9
78522;SHT31;67819;51.972;5.678;2023-02-15T15:26:25;14.0;50.2
78522;SHT31;67819;51.972;5.678;2023-02-15T15:29:00;14.0;50.2
78522;SHT31;67819;51.972;5.678;2023-02-15T15:31:52;13.9;50.5
78522;SHT31;67819;51.972;5.678;2023-02-15T15:35:49;13.9;50.5
78522;SHT31;67819;51.972;5.678;2023-02-15T15:38:35;13.8;50.6
78522;SHT31;67819;51.972;5.678;2023-02-15T15:41:19;13.8;50.5
78522;SHT31;67819;51.972;5.678;2023-02-15T15:47:16;13.7;50.6
78522;SHT31;67819;51.972;5.678;2023-02-15T15:49:55;13.6;50.9
78522;SHT31;67819;51.972;5.678;2023-02-15T15:52:26;13.6;51.0
78522;SHT31;67819;51.972;5.678;2023-02-15T15:55:12;13.6;51.5
78522;SHT31;67819;51.972;5.678;2023-02-15T15:57:43;13.5;51.5
78522;SHT31;67819;51.972;5.678;2023-02-15T16:00:37;13.5;51.4
78522;SHT31;67819;51.972;5.678;2023-02-15T16:03:20;13.4;51.8
78522;SHT31;67819;51.972;5.678;2023-02-15T16:05:50;13.4;51.6
78522;SHT31;67819;51.972;5.678;2023-02-15T16:08:31;13.3;51.8
78522;SHT31;67819;51.972;5.678;2023-02-15T16:11:10;13.3;52.1
78522;SHT31;67819;51.972;5.678;2023-02-15T16:13:42;13.2;52.2
78522;SHT31;67819;51.972;5.678;2023-02-15T16:16:22;13.2;52.6
78522;SHT31;67819;51.972;5.678;2023-02-15T16:18:52;13.1;52.6
78522;SHT31;67819;51.972;5.678;2023-02-15T16:21:27;13.1;53.4
78522;SHT31;67819;51.972;5.678;2023-02-15T16:24:13;13.0;53.6
78522;SHT31;67819;51.972;5.678;2023-02-15T16:27:08;13.0;54.0
78522;SHT31;67819;51.972;5.678;2023-02-15T16:29:40;12.9;53.2
78522;SHT31;67819;51.972;5.678;2023-02-15T16:32:19;12.9;53.1
78522;SHT31;67819;51.972;5.678;2023-02-15T16:34:53;12.8;53.5
78522;SHT31;67819;51.972;5.678;2023-02-15T16:37:24;12.7;53.7
78522;SHT31;67819;51.972;5.678;2023-02-15T16:39:55;12.7;54.0
78522;SHT31;67819;51.972;5.678;2023-02-15T16:42:25;12.6;53.7
78522;SHT31;67819;51.972;5.678;2023-02-15T16:45:04;12.5;53.6
78522;SHT31;67819;51.972;5.678;2023-02-15T16:47:41;12.5;53.6
78522;SHT31;67819;51.972;5.678;2023-02-15T16:50:19;12.4;54.2
78522;SHT31;67819;51.972;5.678;2023-02-15T16:52:49;12.3;53.9
78522;SHT31;67819;51.972;5.678;2023-02-15T16:55:23;12.2;54.0
78522;SHT31;67819;51.972;5.678;2023-02-15T16:57:57;12.2;54.0
78522;SHT31;67819;51.972;5.678;2023-02-15T17:00:32;12.1;54.0
78522;SHT31;67819;51.972;5.678;2023-02-15T17:03:06;12.0;54.3
78522;SHT31;67819;51.972;5.678;2023-02-15T17:05:44;12.0;54.2
78522;SHT31;67819;51.972;5.678;2023-02-15T17:08:17;11.9;54.4
78522;SHT31;67819;51.972;5.678;2023-02-15T17:11:05;11.8;54.8
78522;SHT31;67819;51.972;5.678;2023-02-15T17:13:35;11.8;54.7
78522;SHT31;67819;51.972;5.678;2023-02-15T17:16:49;11.7;54.7
78522;SHT31;67819;51.972;5.678;2023-02-15T17:19:25;11.6;54.9
78522;SHT31;67819;51.972;5.678;2023-02-15T17:21:57;11.5;55.0
78522;SHT31;67819;51.972;5.678;2023-02-15T17:24:35;11.5;55.3